Time;durP1;ratioP1;P1;durP2;ratioP2;P2;SDS_P1;SDS_P2;PMS_P1;PMS_P2;Temp;Humidity;BMP_temperature;BMP_pressure;BME280_temperature;BME280_humidity;BME280_pressure;Samples;Min_cycle;Max_cycle;Signal;HPM_P1;HPM_P2
2021/07/19 00:02:04;;;;;;;19.70;15.68;;;17.90;99.90;;;;;;4935023;29;20332;-45
2021/07/19 00:04:34;;;;;;;18.58;16.33;;;17.90;99.90;;;;;;4935034;29;20283;-46
2021/07/19 00:07:02;;;;;;;17.60;14.77;;;17.80;99.90;;;;;;4934723;29;20303;-48
2021/07/19 00:09:31;;;;;;;20.92;15.65;;;17.80;99.90;;;;;;4935076;29;20230;-46
2021/07/19 00:12:00;;;;;;;19.20;16.08;;;17.80;99.90;;;;;;4935058;29;20299;-47
2021/07/19 00:14:28;;;;;;;17.52;15.63;;;17.70;99.90;;;;;;4935001;29;20817;-47
2021/07/19 00:16:57;;;;;;;21.45;16.95;;;17.70;99.90;;;;;;4934858;29;20310;-48
2021/07/19 00:19:26;;;;;;;18.88;16.00;;;17.70;99.90;;;;;;4934530;29;20216;-45
2021/07/19 00:21:54;;;;;;;17.55;15.75;;;17.60;99.90;;;;;;4934842;29;20278;-47
2021/07/19 00:24:21;;;;;;;17.05;15.25;;;17.60;99.90;;;;;;4934811;29;20296;-46
2021/07/19 00:26:50;;;;;;;21.60;15.95;;;17.60;99.90;;;;;;4934113;29;20220;-47
2021/07/19 00:29:17;;;;;;;16.90;15.20;;;17.50;99.90;;;;;;4934584;29;20222;-49
2021/07/19 00:31:45;;;;;;;18.25;15.63;;;17.50;99.90;;;;;;4934579;29;20307;-46
2021/07/19 00:34:15;;;;;;;16.95;14.55;;;17.50;99.90;;;;;;4934593;29;20344;-49
2021/07/19 00:36:43;;;;;;;17.50;15.63;;;17.50;99.90;;;;;;4934549;29;20218;-45
2021/07/19 00:39:11;;;;;;;20.00;15.80;;;17.40;99.90;;;;;;4934730;29;20230;-47
2021/07/19 00:41:40;;;;;;;18.23;14.85;;;17.40;99.90;;;;;;4934600;29;20318;-48
2021/07/19 00:44:08;;;;;;;15.27;13.77;;;17.40;99.90;;;;;;4934667;29;20212;-52
2021/07/19 00:46:36;;;;;;;21.13;16.52;;;17.40;99.90;;;;;;4934759;29;20730;-49
2021/07/19 00:49:04;;;;;;;17.85;15.93;;;17.40;99.90;;;;;;4934863;29;20319;-53
2021/07/19 00:51:33;;;;;;;16.42;13.65;;;17.40;99.90;;;;;;4934624;29;20585;-49
2021/07/19 00:54:04;;;;;;;17.40;15.57;;;17.40;99.90;;;;;;4934608;29;20302;-47
2021/07/19 00:56:33;;;;;;;16.73;14.25;;;17.30;99.90;;;;;;4934513;29;20728;-50
2021/07/19 00:59:03;;;;;;;18.70;14.70;;;17.30;99.90;;;;;;4934622;29;20219;-52
2021/07/19 01:01:32;;;;;;;16.55;14.80;;;17.30;99.90;;;;;;4934561;29;20299;-52
2021/07/19 01:04:02;;;;;;;17.58;13.85;;;17.30;99.90;;;;;;4934722;29;20263;-46
2021/07/19 01:06:31;;;;;;;16.52;14.82;;;17.30;99.90;;;;;;4934713;29;20216;-47
2021/07/19 01:09:03;;;;;;;17.70;14.35;;;17.20;99.90;;;;;;4934568;29;20335;-48
2021/07/19 01:11:32;;;;;;;18.60;14.90;;;17.20;99.90;;;;;;4934501;29;20228;-48
2021/07/19 01:14:00;;;;;;;17.95;14.93;;;17.20;99.90;;;;;;4934527;29;20668;-46
2021/07/19 01:16:28;;;;;;;17.25;15.23;;;17.20;99.90;;;;;;4934648;29;20215;-47
2021/07/19 01:18:56;;;;;;;17.60;15.80;;;17.10;99.90;;;;;;4934432;29;20231;-50
2021/07/19 01:22:04;;;;;;;17.65;15.73;;;17.10;99.90;;;;;;4934536;29;20295;-47
2021/07/19 01:24:45;;;;;;;17.02;14.73;;;17.10;99.90;;;;;;4894374;29;20299;-46
2021/07/19 01:27:52;;;;;;;19.67;15.07;;;17.10;99.90;;;;;;4894579;29;20223;-47
2021/07/19 01:30:21;;;;;;;17.42;15.48;;;17.00;99.90;;;;;;4928690;29;20234;-46
2021/07/19 01:32:49;;;;;;;16.95;14.85;;;17.00;99.90;;;;;;4934480;29;20315;-48
2021/07/19 01:35:19;;;;;;;17.50;15.60;;;17.00;99.90;;;;;;4934484;29;20222;-47
2021/07/19 01:37:48;;;;;;;18.25;16.35;;;17.00;99.90;;;;;;4935687;29;20227;-46
2021/07/19 01:40:18;;;;;;;16.85;15.05;;;17.00;99.90;;;;;;4937795;29;20677;-46
2021/07/19 01:42:46;;;;;;;20.27;15.70;;;16.90;99.90;;;;;;4937660;29;20324;-46
2021/07/19 01:45:14;;;;;;;19.88;15.55;;;16.90;99.90;;;;;;4937999;29;20299;-49
2021/07/19 01:47:45;;;;;;;19.02;16.13;;;16.90;99.90;;;;;;4937891;29;20223;-47
2021/07/19 01:50:14;;;;;;;19.02;15.25;;;16.90;99.90;;;;;;4937857;29;20254;-51
2021/07/19 01:52:43;;;;;;;19.23;16.35;;;16.90;99.90;;;;;;4937636;29;20243;-45
2021/07/19 01:55:12;;;;;;;17.15;15.43;;;16.90;99.90;;;;;;4942855;29;20270;-47
2021/07/19 01:57:40;;;;;;;17.80;15.80;;;16.90;99.90;;;;;;4938279;29;20248;-47
2021/07/19 02:00:10;;;;;;;18.55;14.95;;;16.90;99.90;;;;;;4938047;29;20306;-47
2021/07/19 02:02:38;;;;;;;17.48;15.60;;;16.80;99.90;;;;;;4937840;29;20665;-46
2021/07/19 02:05:13;;;;;;;17.13;15.30;;;16.80;99.90;;;;;;4937488;29;20575;-46
2021/07/19 02:07:42;;;;;;;20.30;15.52;;;16.80;99.90;;;;;;4936592;29;20247;-46
2021/07/19 02:10:13;;;;;;;17.42;15.38;;;16.80;99.90;;;;;;4937634;29;20208;-51
2021/07/19 02:12:44;;;;;;;17.85;15.98;;;16.80;99.90;;;;;;4937288;29;20243;-48
2021/07/19 02:15:15;;;;;;;16.92;15.15;;;16.80;99.90;;;;;;4937216;29;20216;-45
2021/07/19 02:17:45;;;;;;;17.52;14.77;;;16.80;99.90;;;;;;4937341;29;20303;-50
2021/07/19 02:20:16;;;;;;;20.02;14.85;;;16.80;99.90;;;;;;4937095;29;20636;-46
2021/07/19 02:22:46;;;;;;;17.48;14.45;;;16.80;99.90;;;;;;4937184;29;20316;-47
2021/07/19 02:25:16;;;;;;;16.10;14.38;;;16.80;99.90;;;;;;4937213;29;20216;-45
2021/07/19 02:27:47;;;;;;;17.38;15.57;;;16.80;99.90;;;;;;4937168;29;20303;-47
2021/07/19 02:30:17;;;;;;;19.23;16.42;;;16.80;99.90;;;;;;4937084;29;20212;-47
2021/07/19 02:32:47;;;;;;;19.55;16.10;;;16.80;99.90;;;;;;4936949;29;20291;-48
2021/07/19 02:35:17;;;;;;;19.95;16.02;;;16.80;99.90;;;;;;4937070;29;20295;-46
2021/07/19 02:37:49;;;;;;;17.13;14.73;;;16.70;99.90;;;;;;4936841;29;20215;-48
2021/07/19 02:40:20;;;;;;;16.27;14.57;;;16.70;99.90;;;;;;4936967;29;20259;-46
2021/07/19 02:42:51;;;;;;;17.88;16.05;;;16.70;99.90;;;;;;4936752;29;20239;-49
2021/07/19 02:45:20;;;;;;;17.10;15.25;;;16.70;99.90;;;;;;4936574;29;20303;-46
2021/07/19 02:47:51;;;;;;;18.10;15.48;;;16.70;99.90;;;;;;4936956;29;20250;-50
2021/07/19 02:50:24;;;;;;;20.40;16.52;;;16.70;99.90;;;;;;4936003;29;20324;-48
2021/07/19 02:52:57;;;;;;;18.38;16.48;;;16.70;99.90;;;;;;4936566;29;20302;-49
2021/07/19 02:55:25;;;;;;;17.27;15.30;;;16.80;99.90;;;;;;4936622;29;20299;-45
2021/07/19 02:57:53;;;;;;;16.17;14.00;;;16.80;99.90;;;;;;4936470;29;20613;-46
2021/07/19 03:00:22;;;;;;;19.13;14.98;;;16.80;99.90;;;;;;4936496;29;20258;-47
2021/07/19 03:02:53;;;;;;;17.80;15.27;;;16.90;99.90;;;;;;4936510;29;20236;-47
2021/07/19 03:05:28;;;;;;;19.02;16.17;;;16.90;99.90;;;;;;4936370;29;20695;-47
2021/07/19 03:07:58;;;;;;;17.05;15.23;;;17.00;99.90;;;;;;4936244;29;20250;-50
2021/07/19 03:10:29;;;;;;;17.02;15.27;;;16.90;99.90;;;;;;4936250;29;20252;-45
2021/07/19 03:13:00;;;;;;;16.13;14.30;;;17.00;99.90;;;;;;4936499;29;20204;-47
2021/07/19 03:15:32;;;;;;;17.05;15.27;;;16.90;99.90;;;;;;4936238;29;20251;-49
2021/07/19 03:18:02;;;;;;;17.60;14.82;;;16.90;99.90;;;;;;4936121;29;20255;-47
2021/07/19 03:20:35;;;;;;;17.73;15.40;;;16.90;99.90;;;;;;4935999;29;20248;-49
2021/07/19 03:23:05;;;;;;;19.63;17.17;;;16.90;99.90;;;;;;4935833;29;20635;-46
2021/07/19 03:25:35;;;;;;;17.23;15.02;;;16.80;99.90;;;;;;4935893;29;20211;-46
2021/07/19 03:28:03;;;;;;;19.63;16.80;;;16.80;99.90;;;;;;4936120;29;20222;-48
2021/07/19 03:30:32;;;;;;;17.00;14.32;;;16.80;99.90;;;;;;4935819;29;20220;-49
2021/07/19 03:33:01;;;;;;;16.13;14.45;;;16.70;99.90;;;;;;4935668;29;20212;-50
2021/07/19 03:35:32;;;;;;;17.70;15.65;;;16.70;99.90;;;;;;4935560;29;20302;-47
2021/07/19 03:38:02;;;;;;;20.33;15.55;;;16.60;99.90;;;;;;4935496;29;20575;-52
2021/07/19 03:40:30;;;;;;;17.40;15.23;;;16.50;99.90;;;;;;4935640;29;20694;-53
2021/07/19 03:43:00;;;;;;;18.95;16.85;;;16.50;99.90;;;;;;4935793;29;20219;-46
2021/07/19 03:45:29;;;;;;;17.92;14.63;;;16.50;99.90;;;;;;4935582;29;20262;-47
2021/07/19 03:47:57;;;;;;;18.15;15.65;;;16.50;99.90;;;;;;4935251;29;20731;-45
2021/07/19 03:50:25;;;;;;;17.50;15.70;;;16.50;99.90;;;;;;4935527;29;20307;-51
2021/07/19 03:52:55;;;;;;;18.48;16.58;;;16.40;99.90;;;;;;4935520;29;20212;-46
2021/07/19 03:55:23;;;;;;;18.70;16.77;;;16.40;99.90;;;;;;4935549;29;20219;-48
2021/07/19 03:57:52;;;;;;;17.73;14.20;;;16.40;99.90;;;;;;4935548;29;20219;-47
2021/07/19 04:00:21;;;;;;;17.02;14.15;;;16.40;99.90;;;;;;4934942;29;20295;-44
2021/07/19 04:02:52;;;;;;;14.73;13.23;;;16.40;99.90;;;;;;4934789;29;20298;-47
2021/07/19 04:05:22;;;;;;;15.50;13.80;;;16.40;99.90;;;;;;4935333;29;20235;-45
2021/07/19 04:07:50;;;;;;;17.63;13.80;;;16.40;99.90;;;;;;4935026;29;20306;-48
2021/07/19 04:10:21;;;;;;;16.75;15.02;;;16.40;99.90;;;;;;4935591;29;20212;-49
2021/07/19 04:12:51;;;;;;;15.00;13.35;;;16.40;99.90;;;;;;4934964;29;20215;-46
2021/07/19 04:15:20;;;;;;;16.50;14.02;;;16.50;99.90;;;;;;4935271;29;20263;-48
2021/07/19 04:17:48;;;;;;;16.63;12.77;;;16.50;99.90;;;;;;4934998;29;20614;-46
2021/07/19 04:20:18;;;;;;;16.92;15.13;;;16.50;99.90;;;;;;4934779;29;20624;-48
2021/07/19 04:22:46;;;;;;;18.77;13.93;;;16.50;99.90;;;;;;4934787;29;20212;-47
2021/07/19 04:25:15;;;;;;;17.52;14.30;;;16.50;99.90;;;;;;4934608;29;20267;-47
2021/07/19 04:27:44;;;;;;;15.63;13.93;;;16.60;99.90;;;;;;4935017;29;20298;-49
2021/07/19 04:30:13;;;;;;;19.00;15.02;;;16.60;99.90;;;;;;4934797;29;20310;-50
2021/07/19 04:32:44;;;;;;;20.63;13.93;;;16.60;99.90;;;;;;4934750;29;20306;-48
2021/07/19 04:35:19;;;;;;;16.95;14.25;;;16.70;99.90;;;;;;4934529;29;20258;-46
2021/07/19 04:37:50;;;;;;;17.15;14.48;;;16.70;99.90;;;;;;4935175;29;20710;-48
2021/07/19 04:40:18;;;;;;;20.77;14.18;;;16.70;99.90;;;;;;4935477;29;20384;-48
2021/07/19 04:42:48;;;;;;;15.98;13.25;;;16.80;99.90;;;;;;4935197;29;20247;-47
2021/07/19 04:45:18;;;;;;;15.27;13.43;;;16.80;99.90;;;;;;4934829;29;20341;-49
2021/07/19 04:47:47;;;;;;;16.95;14.35;;;16.90;99.90;;;;;;4934859;29;20310;-50
2021/07/19 04:50:16;;;;;;;16.40;13.65;;;16.90;99.90;;;;;;4935237;29;20220;-47
2021/07/19 04:52:45;;;;;;;20.35;14.23;;;17.00;99.90;;;;;;4935814;29;20254;-44
2021/07/19 04:55:18;;;;;;;16.73;14.80;;;17.00;99.90;;;;;;4935007;29;20634;-48
2021/07/19 04:57:51;;;;;;;18.83;14.95;;;17.10;99.90;;;;;;4934493;29;20298;-46
2021/07/19 05:00:19;;;;;;;17.35;13.93;;;17.20;99.90;;;;;;4935013;29;20242;-46
2021/07/19 05:02:50;;;;;;;19.45;14.50;;;17.30;99.90;;;;;;4934831;29;20708;-47
2021/07/19 05:05:21;;;;;;;16.13;14.18;;;17.30;99.90;;;;;;4934554;29;20232;-50
2021/07/19 05:07:50;;;;;;;16.17;14.57;;;17.40;99.90;;;;;;4934457;29;20335;-47
2021/07/19 05:10:20;;;;;;;18.05;14.57;;;17.50;99.90;;;;;;4934673;29;20255;-47
2021/07/19 05:12:52;;;;;;;17.10;14.43;;;17.60;99.90;;;;;;4935949;29;20260;-49
2021/07/19 05:15:21;;;;;;;17.45;14.88;;;17.60;99.90;;;;;;4938196;29;20212;-49
2021/07/19 05:17:49;;;;;;;16.17;14.02;;;17.70;99.90;;;;;;4938352;29;20216;-47
2021/07/19 05:20:20;;;;;;;17.70;15.90;;;17.80;99.90;;;;;;4938157;29;20251;-48
2021/07/19 05:22:49;;;;;;;16.08;14.35;;;17.80;99.90;;;;;;4938080;29;20222;-50
2021/07/19 05:25:24;;;;;;;20.83;15.48;;;17.90;99.90;;;;;;4937854;29;20239;-50
2021/07/19 05:28:05;;;;;;;15.73;14.13;;;18.00;99.90;;;;;;4937980;29;20222;-47
2021/07/19 05:30:33;;;;;;;18.35;14.75;;;18.10;99.90;;;;;;4938101;29;20216;-49
2021/07/19 05:33:01;;;;;;;15.93;14.25;;;18.20;99.90;;;;;;4938065;29;20212;-48
2021/07/19 05:35:29;;;;;;;16.42;14.43;;;18.30;99.90;;;;;;4937937;29;20366;-50
2021/07/19 05:37:57;;;;;;;17.40;14.35;;;18.30;99.90;;;;;;4937773;29;20306;-47
2021/07/19 05:40:25;;;;;;;15.85;13.40;;;18.40;99.90;;;;;;4937697;29;20216;-47
2021/07/19 05:42:53;;;;;;;16.65;14.50;;;18.50;99.90;;;;;;4937945;29;20216;-52
2021/07/19 05:45:23;;;;;;;14.77;13.13;;;18.60;99.90;;;;;;4937880;29;20330;-52
2021/07/19 05:47:51;;;;;;;14.50;13.05;;;18.70;99.90;;;;;;4937688;29;20236;-51
2021/07/19 05:50:19;;;;;;;20.15;14.88;;;18.90;99.90;;;;;;4937803;29;20319;-50
2021/07/19 05:52:47;;;;;;;16.50;14.02;;;19.00;99.90;;;;;;4937620;29;20216;-52
2021/07/19 05:55:15;;;;;;;17.33;13.73;;;19.10;99.90;;;;;;4937765;29;20219;-53
2021/07/19 05:57:44;;;;;;;15.77;13.52;;;19.20;99.90;;;;;;4937563;29;20223;-51
2021/07/19 06:00:16;;;;;;;16.40;13.68;;;19.20;99.90;;;;;;4937484;29;20307;-51
2021/07/19 06:02:45;;;;;;;15.70;14.02;;;19.30;99.90;;;;;;4937121;29;20295;-50
2021/07/19 06:05:14;;;;;;;13.65;12.35;;;19.50;99.90;;;;;;4937134;29;20236;-52
2021/07/19 06:07:42;;;;;;;14.90;13.23;;;19.60;99.90;;;;;;4937108;29;20330;-52
2021/07/19 06:10:13;;;;;;;12.98;11.43;;;19.70;99.90;;;;;;4937438;29;20325;-53
2021/07/19 06:12:41;;;;;;;13.40;11.35;;;19.90;99.90;;;;;;4937747;29;20258;-53
2021/07/19 06:15:11;;;;;;;17.00;11.27;;;20.00;99.90;;;;;;4937290;29;20204;-52
2021/07/19 06:17:39;;;;;;;14.02;12.52;;;20.10;99.90;;;;;;4937362;29;20258;-50
2021/07/19 06:20:11;;;;;;;17.42;13.65;;;20.20;99.90;;;;;;4937125;29;20255;-48
2021/07/19 06:22:40;;;;;;;16.60;11.68;;;20.40;99.90;;;;;;4937373;29;20250;-54
2021/07/19 06:25:10;;;;;;;16.60;12.43;;;20.40;99.90;;;;;;4936007;29;20299;-53
2021/07/19 06:27:38;;;;;;;11.55;10.05;;;20.50;99.90;;;;;;4937012;29;20308;-50
2021/07/19 06:30:07;;;;;;;12.95;11.65;;;20.60;99.90;;;;;;4936761;29;20216;-51
2021/07/19 06:32:35;;;;;;;15.02;10.65;;;20.70;99.90;;;;;;4936667;29;20585;-51
2021/07/19 06:35:03;;;;;;;11.82;10.48;;;20.80;99.90;;;;;;4937079;29;20218;-51
2021/07/19 06:37:33;;;;;;;11.85;9.85;;;20.90;99.90;;;;;;4936657;29;20632;-49
2021/07/19 06:40:01;;;;;;;10.13;8.45;;;21.00;99.90;;;;;;4936844;29;20489;-50
2021/07/19 06:42:29;;;;;;;9.05;8.23;;;21.10;99.90;;;;;;4936936;29;20586;-49
2021/07/19 06:44:57;;;;;;;10.45;8.90;;;21.20;99.90;;;;;;4936797;29;20315;-53
2021/07/19 06:47:25;;;;;;;13.45;8.52;;;21.30;99.90;;;;;;4937046;29;20247;-51
2021/07/19 06:49:54;;;;;;;8.10;7.30;;;21.30;99.90;;;;;;4936655;29;20243;-51
2021/07/19 06:52:23;;;;;;;12.57;8.98;;;21.40;99.90;;;;;;4936517;29;20654;-50
2021/07/19 06:54:52;;;;;;;9.32;8.20;;;21.50;99.90;;;;;;4936595;29;20335;-52
2021/07/19 06:57:21;;;;;;;11.98;8.57;;;21.60;99.90;;;;;;4936440;29;20212;-47
2021/07/19 06:59:50;;;;;;;8.50;7.70;;;21.70;99.90;;;;;;4936574;29;20216;-48
2021/07/19 07:02:18;;;;;;;9.70;7.28;;;21.70;99.90;;;;;;4936515;29;20228;-52
2021/07/19 07:04:46;;;;;;;8.23;7.38;;;21.80;99.90;;;;;;4936176;29;20212;-53
2021/07/19 07:07:14;;;;;;;11.40;7.47;;;21.80;99.90;;;;;;4935911;29;20303;-53
2021/07/19 07:09:42;;;;;;;7.93;7.22;;;21.90;99.90;;;;;;4936144;29;20644;-48
2021/07/19 07:12:21;;;;;;;8.10;7.18;;;22.00;99.90;;;;;;4936333;29;20212;-49
2021/07/19 07:14:50;;;;;;;9.35;6.95;;;22.10;99.90;;;;;;4936250;29;20223;-52
2021/07/19 07:17:18;;;;;;;7.55;6.82;;;22.20;99.90;;;;;;4936031;29;20324;-53
2021/07/19 07:19:51;;;;;;;7.85;7.05;;;22.40;99.90;;;;;;4936021;29;20216;-52
2021/07/19 07:22:21;;;;;;;10.32;7.13;;;22.40;99.90;;;;;;4935946;29;20307;-52
2021/07/19 07:24:49;;;;;;;10.70;7.40;;;22.40;99.90;;;;;;4935868;29;20389;-52
2021/07/19 07:27:19;;;;;;;8.65;7.85;;;22.40;99.90;;;;;;4935774;29;20248;-49
2021/07/19 07:29:48;;;;;;;10.32;7.45;;;22.40;99.90;;;;;;4935876;29;20212;-54
2021/07/19 07:32:16;;;;;;;8.73;7.28;;;22.50;99.90;;;;;;4935887;29;20218;-49
2021/07/19 07:34:44;;;;;;;6.72;5.93;;;22.50;99.90;;;;;;4936007;29;20311;-51
2021/07/19 07:37:13;;;;;;;7.00;5.45;;;22.60;99.90;;;;;;4935554;29;20208;-52
2021/07/19 07:39:42;;;;;;;7.10;5.45;;;22.70;99.90;;;;;;4936122;29;20322;-51
2021/07/19 07:42:10;;;;;;;7.32;5.50;;;22.80;99.90;;;;;;4935810;29;20628;-51
2021/07/19 07:44:39;;;;;;;6.50;5.00;;;23.00;99.90;;;;;;4935476;29;20439;-52
2021/07/19 07:47:09;;;;;;;10.00;6.55;;;23.10;99.90;;;;;;4935409;29;20318;-53
2021/07/19 07:49:38;;;;;;;5.68;5.10;;;23.20;99.90;;;;;;4935393;29;20216;-53
2021/07/19 07:52:07;;;;;;;7.40;4.82;;;23.20;99.90;;;;;;4935688;29;20310;-52
2021/07/19 07:54:35;;;;;;;8.65;5.20;;;23.30;99.90;;;;;;4935426;29;20212;-51
2021/07/19 07:57:04;;;;;;;6.95;4.82;;;23.40;99.90;;;;;;4935692;29;20287;-52
2021/07/19 07:59:32;;;;;;;6.22;5.63;;;23.50;99.90;;;;;;4935399;29;20271;-49
2021/07/19 08:02:00;;;;;;;8.60;7.70;;;23.60;99.90;;;;;;4935329;29;20208;-53
2021/07/19 08:04:31;;;;;;;9.13;4.88;;;23.60;99.90;;;;;;4935508;29;20216;-52
2021/07/19 08:07:00;;;;;;;7.28;5.55;;;23.70;99.90;;;;;;4934902;29;20323;-53
2021/07/19 08:09:29;;;;;;;5.72;5.22;;;23.80;99.90;;;;;;4935498;29;20223;-49
2021/07/19 08:11:58;;;;;;;8.40;6.78;;;23.90;99.90;;;;;;4935316;29;20302;-52
2021/07/19 08:14:27;;;;;;;8.15;5.05;;;24.00;99.90;;;;;;4935133;29;20245;-49
2021/07/19 08:16:55;;;;;;;9.20;5.00;;;24.10;99.90;;;;;;4935075;29;20255;-53
2021/07/19 08:19:28;;;;;;;5.97;5.43;;;24.20;99.90;;;;;;4935061;29;20244;-49
2021/07/19 08:21:57;;;;;;;4.93;4.30;;;24.30;99.90;;;;;;4935094;29;20244;-50
2021/07/19 08:24:26;;;;;;;5.22;4.50;;;24.40;99.90;;;;;;4934904;29;20211;-48
2021/07/19 08:26:54;;;;;;;6.90;4.25;;;24.50;99.90;;;;;;4934894;29;20330;-52
2021/07/19 08:29:22;;;;;;;6.70;4.55;;;24.50;99.90;;;;;;4935232;29;20343;-52
2021/07/19 08:31:50;;;;;;;4.43;3.70;;;24.60;99.90;;;;;;4935015;29;20216;-49
2021/07/19 08:34:17;;;;;;;7.13;4.70;;;24.60;99.90;;;;;;4934967;29;20220;-53
2021/07/19 08:36:45;;;;;;;4.93;4.53;;;24.80;99.90;;;;;;4934807;29;20204;-49
2021/07/19 08:39:14;;;;;;;10.48;4.85;;;24.90;99.90;;;;;;4934977;29;20311;-51
2021/07/19 08:41:43;;;;;;;5.53;4.35;;;25.10;99.90;;;;;;4935242;29;20287;-52
2021/07/19 08:44:11;;;;;;;4.50;3.88;;;25.20;99.90;;;;;;4934930;29;20299;-52
2021/07/19 08:46:40;;;;;;;5.32;4.82;;;25.40;99.60;;;;;;4935461;29;20231;-48
2021/07/19 08:49:10;;;;;;;5.05;4.65;;;25.50;99.30;;;;;;4941186;29;20222;-49
2021/07/19 08:51:40;;;;;;;6.53;4.03;;;25.50;99.20;;;;;;4941126;29;20212;-47
2021/07/19 08:54:11;;;;;;;4.75;4.05;;;25.60;99.00;;;;;;4941168;29;20646;-50
2021/07/19 08:56:41;;;;;;;6.32;4.43;;;25.80;98.70;;;;;;4941202;29;20242;-49
2021/07/19 08:59:13;;;;;;;6.22;5.40;;;26.00;98.30;;;;;;4940951;29;20258;-48
2021/07/19 09:01:41;;;;;;;5.20;4.68;;;26.20;98.00;;;;;;4941101;29;20304;-49
2021/07/19 09:04:12;;;;;;;7.70;4.05;;;26.30;97.50;;;;;;4941204;29;20220;-52
2021/07/19 09:06:40;;;;;;;4.53;4.03;;;26.50;97.20;;;;;;4940922;29;20272;-49
2021/07/19 09:09:08;;;;;;;5.00;4.50;;;26.60;96.80;;;;;;4941091;29;20244;-54
2021/07/19 09:11:36;;;;;;;5.63;4.50;;;26.70;96.50;;;;;;4941265;29;20632;-51
2021/07/19 09:14:07;;;;;;;4.35;3.95;;;26.80;96.10;;;;;;4941066;29;20302;-54
2021/07/19 09:16:42;;;;;;;5.25;3.92;;;26.80;95.90;;;;;;4941130;29;20413;-53
2021/07/19 09:19:12;;;;;;;4.22;3.83;;;26.80;95.40;;;;;;4940762;29;20253;-51
2021/07/19 09:21:42;;;;;;;5.03;4.05;;;26.70;95.30;;;;;;4940992;29;20229;-51
2021/07/19 09:24:11;;;;;;;5.07;3.75;;;26.60;95.30;;;;;;4940919;29;20644;-52
2021/07/19 09:26:41;;;;;;;4.22;3.88;;;26.60;95.20;;;;;;4940874;29;20327;-52
2021/07/19 09:29:12;;;;;;;4.05;3.75;;;26.70;94.90;;;;;;4940838;29;20575;-50
2021/07/19 09:31:42;;;;;;;4.28;3.97;;;26.70;95.00;;;;;;4940471;29;20222;-52
2021/07/19 09:34:16;;;;;;;6.07;4.30;;;26.90;94.60;;;;;;4940734;29;20237;-50
2021/07/19 09:36:55;;;;;;;9.35;5.75;;;27.10;94.20;;;;;;4941144;29;20634;-51
2021/07/19 09:39:23;;;;;;;5.93;4.05;;;27.20;93.70;;;;;;4940933;29;20669;-49
2021/07/19 09:41:51;;;;;;;4.35;3.95;;;27.40;93.40;;;;;;4940678;29;20212;-49
2021/07/19 09:44:24;;;;;;;6.15;4.50;;;27.40;93.10;;;;;;4940538;29;20251;-50
2021/07/19 09:47:00;;;;;;;5.72;3.83;;;27.60;92.50;;;;;;4940625;29;20421;-54
2021/07/19 09:49:31;;;;;;;5.15;3.78;;;27.70;92.00;;;;;;4940591;29;20275;-53
2021/07/19 09:52:00;;;;;;;7.00;4.45;;;27.80;91.80;;;;;;4941139;29;20306;-51
2021/07/19 09:54:41;;;;;;;7.00;4.70;;;27.70;91.80;;;;;;4940349;29;20226;-49
2021/07/19 09:57:09;;;;;;;7.90;4.15;;;27.70;91.70;;;;;;4941064;29;20231;-52
2021/07/19 09:59:50;;;;;;;7.80;4.13;;;27.60;91.70;;;;;;4938304;29;20304;-52
2021/07/19 10:02:32;;;;;;;6.18;3.85;;;27.40;91.80;;;;;;4937529;29;20222;-51
2021/07/19 10:05:00;;;;;;;4.70;4.00;;;27.30;92.30;;;;;;4937455;29;20664;-52
2021/07/19 10:07:28;;;;;;;5.45;3.58;;;27.20;92.50;;;;;;4937173;29;20278;-48
2021/07/19 10:09:57;;;;;;;5.95;3.72;;;27.20;92.60;;;;;;4937399;29;20240;-50
2021/07/19 10:12:25;;;;;;;4.47;4.07;;;27.10;92.80;;;;;;4937215;29;20720;-48
2021/07/19 10:14:57;;;;;;;6.55;4.60;;;27.10;93.10;;;;;;4937218;29;20218;-48
2021/07/19 10:17:46;;;;;;;6.75;3.88;;;26.90;93.20;;;;;;4937035;29;20219;-49
2021/07/19 10:20:14;;;;;;;4.63;4.22;;;26.70;93.50;;;;;;4937297;29;20252;-50
2021/07/19 10:22:42;;;;;;;4.93;3.95;;;26.50;93.50;;;;;;4937100;29;20692;-49
2021/07/19 10:25:14;;;;;;;3.83;3.47;;;26.30;93.50;;;;;;4937138;29;20359;-48
2021/07/19 10:27:44;;;;;;;5.10;4.20;;;26.00;93.70;;;;;;4936633;29;20323;-48
2021/07/19 10:30:15;;;;;;;6.82;4.53;;;25.80;94.10;;;;;;4937018;29;20279;-52
2021/07/19 10:32:43;;;;;;;4.43;4.05;;;25.50;94.50;;;;;;4936772;29;20234;-47
2021/07/19 10:35:12;;;;;;;7.43;4.95;;;25.40;94.90;;;;;;4937087;29;20249;-49
2021/07/19 10:37:49;;;;;;;5.65;4.05;;;25.30;95.00;;;;;;4936881;29;20208;-48
2021/07/19 10:40:24;;;;;;;8.70;4.38;;;25.20;95.20;;;;;;4936903;29;20768;-50
2021/07/19 10:43:03;;;;;;;4.45;4.03;;;25.40;94.90;;;;;;4937102;29;20222;-49
2021/07/19 10:45:41;;;;;;;5.57;4.40;;;25.70;94.20;;;;;;4936711;29;20330;-51
2021/07/19 10:48:10;;;;;;;4.95;3.88;;;25.90;93.60;;;;;;4936686;29;20327;-48
2021/07/19 10:50:40;;;;;;;4.75;3.80;;;26.10;93.40;;;;;;4936617;29;20315;-52
2021/07/19 10:53:20;;;;;;;6.40;4.22;;;26.40;93.10;;;;;;4936688;29;20620;-53
2021/07/19 10:56:02;;;;;;;5.20;3.78;;;26.70;92.50;;;;;;4936599;29;20226;-53
2021/07/19 10:58:41;;;;;;;7.30;4.30;;;26.90;91.70;;;;;;4936327;29;20244;-56
2021/07/19 11:01:29;;;;;;;4.88;4.32;;;27.00;91.80;;;;;;4936373;29;20215;-55
2021/07/19 11:04:02;;;;;;;8.27;4.15;;;26.90;91.60;;;;;;4936532;29;20234;-53
2021/07/19 11:06:35;;;;;;;7.32;3.92;;;26.80;91.70;;;;;;4936344;29;20212;-54
2021/07/19 11:09:05;;;;;;;4.30;3.53;;;26.70;91.70;;;;;;4936128;29;20248;-55
2021/07/19 11:11:34;;;;;;;8.10;3.45;;;26.80;91.70;;;;;;4935700;29;20216;-56
2021/07/19 11:14:04;;;;;;;4.03;3.42;;;26.80;91.70;;;;;;4936455;29;20215;-54
2021/07/19 11:16:43;;;;;;;7.90;3.88;;;26.60;91.60;;;;;;4936370;29;20303;-54
2021/07/19 11:19:11;;;;;;;5.15;3.58;;;26.40;91.50;;;;;;4936141;29;20583;-50
2021/07/19 11:21:39;;;;;;;5.30;3.83;;;26.20;91.30;;;;;;4936121;29;20235;-54
2021/07/19 11:24:09;;;;;;;5.03;4.00;;;26.10;91.30;;;;;;4936284;29;20264;-50
2021/07/19 11:26:53;;;;;;;7.75;4.10;;;25.90;91.60;;;;;;4936194;29;20654;-54
2021/07/19 11:29:29;;;;;;;6.05;3.80;;;26.00;91.50;;;;;;4936072;29;20235;-51
2021/07/19 11:32:18;;;;;;;7.10;3.80;;;26.30;91.60;;;;;;4935894;29;20222;-55
2021/07/19 11:34:48;;;;;;;4.63;4.22;;;26.50;91.30;;;;;;4936037;29;20251;-48
2021/07/19 11:37:17;;;;;;;6.13;3.55;;;26.60;91.30;;;;;;4935697;29;20219;-55
2021/07/19 11:39:51;;;;;;;7.35;4.35;;;26.60;91.30;;;;;;4935733;29;20254;-54
2021/07/19 11:42:30;;;;;;;7.72;3.70;;;26.50;91.30;;;;;;4935607;29;20315;-54
2021/07/19 11:45:06;;;;;;;3.78;3.42;;;26.30;91.10;;;;;;4935527;29;20215;-53
2021/07/19 11:47:42;;;;;;;4.10;3.58;;;26.20;91.50;;;;;;4935745;29;20758;-52
2021/07/19 11:50:11;;;;;;;6.88;3.90;;;26.30;91.10;;;;;;4935766;29;20215;-51
2021/07/19 11:52:41;;;;;;;4.80;3.15;;;26.50;90.80;;;;;;4935709;29;20631;-54
2021/07/19 11:55:12;;;;;;;7.20;3.53;;;26.60;90.30;;;;;;4935550;29;20303;-52
2021/07/19 11:57:42;;;;;;;4.93;3.40;;;26.70;89.70;;;;;;4935920;29;20302;-53
2021/07/19 12:00:11;;;;;;;7.90;3.50;;;26.90;88.30;;;;;;4935477;29;20711;-51
2021/07/19 12:02:41;;;;;;;6.65;3.80;;;27.00;87.50;;;;;;4935321;29;20212;-53
2021/07/19 12:05:16;;;;;;;5.57;3.42;;;27.10;87.30;;;;;;4935590;29;20264;-55
2021/07/19 12:07:44;;;;;;;5.07;3.30;;;27.20;86.50;;;;;;4935076;29;20330;-51
2021/07/19 12:10:14;;;;;;;4.25;3.85;;;27.30;86.20;;;;;;4935556;29;20235;-52
2021/07/19 12:12:43;;;;;;;4.18;3.05;;;27.40;85.90;;;;;;4935441;29;20315;-53
2021/07/19 12:15:16;;;;;;;5.68;3.67;;;27.50;85.50;;;;;;4935445;29;20232;-55
2021/07/19 12:17:45;;;;;;;4.70;3.70;;;27.70;85.20;;;;;;4935660;29;20401;-53
2021/07/19 12:20:14;;;;;;;4.32;3.40;;;27.70;84.90;;;;;;4935238;29;20224;-55
2021/07/19 12:22:42;;;;;;;7.72;3.67;;;27.50;84.90;;;;;;4934553;29;20303;-51
2021/07/19 12:25:11;;;;;;;10.60;3.65;;;27.20;85.30;;;;;;4935265;29;20212;-52
2021/07/19 12:27:39;;;;;;;5.40;3.20;;;26.80;85.60;;;;;;4934867;29;20267;-51
2021/07/19 12:30:09;;;;;;;3.67;3.20;;;26.60;85.30;;;;;;4935156;29;20216;-48
2021/07/19 12:32:37;;;;;;;4.53;3.03;;;26.40;85.70;;;;;;4934987;29;20279;-49
2021/07/19 12:35:09;;;;;;;5.78;3.60;;;26.50;85.80;;;;;;4934981;29;20243;-50
2021/07/19 12:37:38;;;;;;;5.38;3.50;;;26.60;84.90;;;;;;4935102;29;20299;-51
2021/07/19 12:40:07;;;;;;;4.03;3.20;;;26.70;84.30;;;;;;4935051;29;20219;-50
2021/07/19 12:42:36;;;;;;;4.18;3.20;;;26.90;83.60;;;;;;4935073;29;20216;-52
2021/07/19 12:45:06;;;;;;;3.92;3.30;;;27.00;83.50;;;;;;4934851;29;20208;-53
2021/07/19 12:47:35;;;;;;;7.82;3.60;;;27.10;83.70;;;;;;4934947;29;20254;-49
2021/07/19 12:50:05;;;;;;;2.97;2.65;;;27.10;83.80;;;;;;4934980;29;20283;-50
2021/07/19 12:52:36;;;;;;;13.75;4.63;;;27.20;83.50;;;;;;4935143;29;20212;-50